sensor_id;sensor_type;location;lat;lon;timestamp;P1;durP1;ratioP1;P2;durP2;ratioP2
17592;SDS011;8915;51.760;14.300;2022-09-23T00:00:57;4.27;;;3.07;;
17592;SDS011;8915;51.760;14.300;2022-09-23T00:03:24;4.40;;;3.37;;
17592;SDS011;8915;51.760;14.300;2022-09-23T00:05:56;4.47;;;3.40;;
17592;SDS011;8915;51.760;14.300;2022-09-23T00:08:25;5.20;;;3.80;;
17592;SDS011;8915;51.760;14.300;2022-09-23T00:10:51;7.63;;;5.07;;
17592;SDS011;8915;51.760;14.300;2022-09-23T00:13:18;6.13;;;4.57;;
17592;SDS011;8915;51.760;14.300;2022-09-23T00:15:44;6.53;;;4.03;;
17592;SDS011;8915;51.760;14.300;2022-09-23T00:18:11;5.60;;;3.70;;
17592;SDS011;8915;51.760;14.300;2022-09-23T00:20:38;7.60;;;3.53;;
17592;SDS011;8915;51.760;14.300;2022-09-23T00:23:04;5.07;;;3.27;;
17592;SDS011;8915;51.760;14.300;2022-09-23T00:25:32;5.53;;;3.90;;
17592;SDS011;8915;51.760;14.300;2022-09-23T00:27:58;5.83;;;4.17;;
17592;SDS011;8915;51.760;14.300;2022-09-23T00:30:25;5.23;;;3.70;;
17592;SDS011;8915;51.760;14.300;2022-09-23T00:32:52;6.33;;;3.67;;
17592;SDS011;8915;51.760;14.300;2022-09-23T00:35:21;7.80;;;4.17;;
17592;SDS011;8915;51.760;14.300;2022-09-23T00:37:48;6.37;;;4.20;;
17592;SDS011;8915;51.760;14.300;2022-09-23T00:40:15;8.33;;;4.83;;
17592;SDS011;8915;51.760;14.300;2022-09-23T00:42:45;7.63;;;4.33;;
17592;SDS011;8915;51.760;14.300;2022-09-23T00:45:13;4.33;;;3.43;;
17592;SDS011;8915;51.760;14.300;2022-09-23T00:47:41;7.90;;;4.20;;
17592;SDS011;8915;51.760;14.300;2022-09-23T00:50:12;4.77;;;3.40;;
17592;SDS011;8915;51.760;14.300;2022-09-23T00:52:47;6.27;;;4.37;;
17592;SDS011;8915;51.760;14.300;2022-09-23T00:55:16;5.47;;;3.80;;
17592;SDS011;8915;51.760;14.300;2022-09-23T00:57:46;6.73;;;4.67;;
17592;SDS011;8915;51.760;14.300;2022-09-23T01:00:13;5.73;;;4.60;;
17592;SDS011;8915;51.760;14.300;2022-09-23T01:02:40;7.47;;;5.63;;
17592;SDS011;8915;51.760;14.300;2022-09-23T01:05:07;8.50;;;5.20;;
17592;SDS011;8915;51.760;14.300;2022-09-23T01:07:34;8.90;;;5.10;;
17592;SDS011;8915;51.760;14.300;2022-09-23T01:10:00;8.87;;;5.43;;
17592;SDS011;8915;51.760;14.300;2022-09-23T01:12:39;8.63;;;5.23;;
17592;SDS011;8915;51.760;14.300;2022-09-23T01:15:18;8.73;;;5.87;;
17592;SDS011;8915;51.760;14.300;2022-09-23T01:17:50;7.33;;;5.33;;
17592;SDS011;8915;51.760;14.300;2022-09-23T01:23:45;5.87;;;4.93;;
17592;SDS011;8915;51.760;14.300;2022-09-23T01:26:39;7.57;;;5.40;;
17592;SDS011;8915;51.760;14.300;2022-09-23T01:29:27;7.93;;;4.90;;
17592;SDS011;8915;51.760;14.300;2022-09-23T01:32:16;5.57;;;3.87;;
17592;SDS011;8915;51.760;14.300;2022-09-23T01:34:53;5.77;;;4.10;;
17592;SDS011;8915;51.760;14.300;2022-09-23T01:37:29;6.50;;;4.23;;
17592;SDS011;8915;51.760;14.300;2022-09-23T01:40:02;5.80;;;3.97;;
17592;SDS011;8915;51.760;14.300;2022-09-23T01:42:33;5.47;;;3.83;;
17592;SDS011;8915;51.760;14.300;2022-09-23T01:45:04;6.47;;;4.47;;
17592;SDS011;8915;51.760;14.300;2022-09-23T01:47:36;5.80;;;3.50;;
17592;SDS011;8915;51.760;14.300;2022-09-23T01:50:07;6.50;;;3.90;;
17592;SDS011;8915;51.760;14.300;2022-09-23T01:52:54;7.07;;;4.23;;
17592;SDS011;8915;51.760;14.300;2022-09-23T01:55:27;4.40;;;3.67;;
17592;SDS011;8915;51.760;14.300;2022-09-23T01:57:58;5.77;;;4.47;;
17592;SDS011;8915;51.760;14.300;2022-09-23T02:00:30;6.90;;;3.77;;
17592;SDS011;8915;51.760;14.300;2022-09-23T02:03:03;5.63;;;4.17;;
17592;SDS011;8915;51.760;14.300;2022-09-23T02:05:37;4.40;;;3.63;;
17592;SDS011;8915;51.760;14.300;2022-09-23T02:08:07;5.97;;;4.37;;
17592;SDS011;8915;51.760;14.300;2022-09-23T02:10:39;6.10;;;4.17;;
17592;SDS011;8915;51.760;14.300;2022-09-23T02:13:12;5.10;;;3.70;;
17592;SDS011;8915;51.760;14.300;2022-09-23T02:15:43;4.37;;;3.37;;
17592;SDS011;8915;51.760;14.300;2022-09-23T02:18:16;4.77;;;3.80;;
17592;SDS011;8915;51.760;14.300;2022-09-23T02:20:47;3.87;;;3.27;;
17592;SDS011;8915;51.760;14.300;2022-09-23T02:23:18;4.63;;;3.63;;
17592;SDS011;8915;51.760;14.300;2022-09-23T02:25:49;5.80;;;4.07;;
17592;SDS011;8915;51.760;14.300;2022-09-23T02:28:23;4.97;;;3.77;;
17592;SDS011;8915;51.760;14.300;2022-09-23T02:30:54;4.97;;;3.87;;
17592;SDS011;8915;51.760;14.300;2022-09-23T02:33:40;6.27;;;4.33;;
17592;SDS011;8915;51.760;14.300;2022-09-23T02:36:14;5.87;;;4.07;;
17592;SDS011;8915;51.760;14.300;2022-09-23T02:38:48;5.77;;;4.00;;
17592;SDS011;8915;51.760;14.300;2022-09-23T02:41:21;5.70;;;3.87;;
17592;SDS011;8915;51.760;14.300;2022-09-23T02:43:52;6.20;;;4.13;;
17592;SDS011;8915;51.760;14.300;2022-09-23T02:46:23;7.20;;;4.47;;
17592;SDS011;8915;51.760;14.300;2022-09-23T02:48:53;5.00;;;3.77;;
17592;SDS011;8915;51.760;14.300;2022-09-23T02:51:25;6.67;;;4.23;;
17592;SDS011;8915;51.760;14.300;2022-09-23T02:53:53;5.03;;;3.70;;
17592;SDS011;8915;51.760;14.300;2022-09-23T02:56:20;4.03;;;3.00;;
17592;SDS011;8915;51.760;14.300;2022-09-23T02:58:46;6.70;;;4.10;;
17592;SDS011;8915;51.760;14.300;2022-09-23T03:01:17;4.30;;;3.47;;
17592;SDS011;8915;51.760;14.300;2022-09-23T03:04:00;4.90;;;3.63;;
17592;SDS011;8915;51.760;14.300;2022-09-23T03:06:46;4.13;;;3.10;;
17592;SDS011;8915;51.760;14.300;2022-09-23T03:09:23;4.87;;;3.43;;
17592;SDS011;8915;51.760;14.300;2022-09-23T03:11:54;5.07;;;3.60;;
17592;SDS011;8915;51.760;14.300;2022-09-23T03:14:31;3.17;;;2.83;;
17592;SDS011;8915;51.760;14.300;2022-09-23T03:17:06;4.00;;;2.67;;
17592;SDS011;8915;51.760;14.300;2022-09-23T03:19:42;3.13;;;2.57;;
17592;SDS011;8915;51.760;14.300;2022-09-23T03:22:14;2.93;;;2.50;;
17592;SDS011;8915;51.760;14.300;2022-09-23T03:24:44;2.67;;;2.30;;
17592;SDS011;8915;51.760;14.300;2022-09-23T03:27:13;4.93;;;3.00;;
17592;SDS011;8915;51.760;14.300;2022-09-23T03:29:42;2.47;;;2.27;;
17592;SDS011;8915;51.760;14.300;2022-09-23T03:32:11;3.00;;;2.50;;
17592;SDS011;8915;51.760;14.300;2022-09-23T03:34:39;3.03;;;2.47;;
17592;SDS011;8915;51.760;14.300;2022-09-23T03:37:10;4.47;;;2.47;;
17592;SDS011;8915;51.760;14.300;2022-09-23T03:39:42;3.30;;;2.60;;
17592;SDS011;8915;51.760;14.300;2022-09-23T03:42:14;2.97;;;2.20;;
17592;SDS011;8915;51.760;14.300;2022-09-23T03:44:44;3.90;;;2.43;;
17592;SDS011;8915;51.760;14.300;2022-09-23T03:47:12;3.57;;;2.47;;
17592;SDS011;8915;51.760;14.300;2022-09-23T03:49:42;3.23;;;2.37;;
17592;SDS011;8915;51.760;14.300;2022-09-23T03:52:12;3.43;;;2.03;;
17592;SDS011;8915;51.760;14.300;2022-09-23T03:54:38;4.27;;;2.73;;
17592;SDS011;8915;51.760;14.300;2022-09-23T03:57:05;2.80;;;2.20;;
17592;SDS011;8915;51.760;14.300;2022-09-23T03:59:31;3.70;;;3.00;;
17592;SDS011;8915;51.760;14.300;2022-09-23T04:01:58;4.73;;;3.13;;
17592;SDS011;8915;51.760;14.300;2022-09-23T04:04:27;4.90;;;3.50;;
17592;SDS011;8915;51.760;14.300;2022-09-23T04:06:55;5.70;;;3.40;;
17592;SDS011;8915;51.760;14.300;2022-09-23T04:09:23;9.63;;;5.23;;
17592;SDS011;8915;51.760;14.300;2022-09-23T04:11:50;33.57;;;16.93;;
17592;SDS011;8915;51.760;14.300;2022-09-23T04:14:17;38.27;;;17.03;;
17592;SDS011;8915;51.760;14.300;2022-09-23T04:16:45;26.40;;;12.23;;
17592;SDS011;8915;51.760;14.300;2022-09-23T04:19:12;28.47;;;15.23;;
17592;SDS011;8915;51.760;14.300;2022-09-23T04:21:40;33.27;;;16.87;;
17592;SDS011;8915;51.760;14.300;2022-09-23T04:24:09;39.27;;;19.60;;
17592;SDS011;8915;51.760;14.300;2022-09-23T04:26:36;38.13;;;19.73;;
17592;SDS011;8915;51.760;14.300;2022-09-23T04:29:03;32.10;;;16.37;;
17592;SDS011;8915;51.760;14.300;2022-09-23T04:31:30;27.97;;;15.63;;
17592;SDS011;8915;51.760;14.300;2022-09-23T04:33:57;18.27;;;11.53;;
17592;SDS011;8915;51.760;14.300;2022-09-23T04:36:24;25.13;;;12.17;;
17592;SDS011;8915;51.760;14.300;2022-09-23T04:38:51;19.00;;;10.80;;
17592;SDS011;8915;51.760;14.300;2022-09-23T04:41:19;20.67;;;11.17;;
17592;SDS011;8915;51.760;14.300;2022-09-23T04:43:45;18.97;;;11.30;;
17592;SDS011;8915;51.760;14.300;2022-09-23T04:46:13;21.50;;;11.40;;
17592;SDS011;8915;51.760;14.300;2022-09-23T04:48:40;15.93;;;9.40;;
17592;SDS011;8915;51.760;14.300;2022-09-23T04:51:08;19.70;;;10.33;;
17592;SDS011;8915;51.760;14.300;2022-09-23T04:53:36;13.17;;;7.97;;
17592;SDS011;8915;51.760;14.300;2022-09-23T04:56:05;10.10;;;6.53;;
17592;SDS011;8915;51.760;14.300;2022-09-23T04:58:35;9.17;;;5.87;;
17592;SDS011;8915;51.760;14.300;2022-09-23T05:01:07;10.70;;;6.77;;
17592;SDS011;8915;51.760;14.300;2022-09-23T05:03:34;10.83;;;7.27;;
17592;SDS011;8915;51.760;14.300;2022-09-23T05:06:00;12.80;;;7.77;;
17592;SDS011;8915;51.760;14.300;2022-09-23T05:08:27;16.80;;;8.40;;
17592;SDS011;8915;51.760;14.300;2022-09-23T05:10:55;12.40;;;7.57;;
17592;SDS011;8915;51.760;14.300;2022-09-23T05:13:21;13.10;;;8.03;;
17592;SDS011;8915;51.760;14.300;2022-09-23T05:15:55;16.10;;;7.87;;
17592;SDS011;8915;51.760;14.300;2022-09-23T05:18:22;13.33;;;7.63;;
17592;SDS011;8915;51.760;14.300;2022-09-23T05:20:51;12.60;;;6.23;;
17592;SDS011;8915;51.760;14.300;2022-09-23T05:23:18;12.53;;;6.83;;
17592;SDS011;8915;51.760;14.300;2022-09-23T05:25:44;13.00;;;5.97;;
17592;SDS011;8915;51.760;14.300;2022-09-23T05:28:12;8.43;;;5.27;;
17592;SDS011;8915;51.760;14.300;2022-09-23T05:30:38;9.70;;;5.40;;
17592;SDS011;8915;51.760;14.300;2022-09-23T05:33:06;10.03;;;4.93;;
17592;SDS011;8915;51.760;14.300;2022-09-23T05:35:32;10.17;;;5.70;;
17592;SDS011;8915;51.760;14.300;2022-09-23T05:37:59;9.03;;;6.27;;
17592;SDS011;8915;51.760;14.300;2022-09-23T05:40:26;9.27;;;5.93;;
17592;SDS011;8915;51.760;14.300;2022-09-23T05:42:53;10.00;;;6.07;;
17592;SDS011;8915;51.760;14.300;2022-09-23T05:45:20;12.17;;;7.00;;
17592;SDS011;8915;51.760;14.300;2022-09-23T05:47:48;9.83;;;5.93;;
17592;SDS011;8915;51.760;14.300;2022-09-23T05:50:16;11.93;;;6.80;;
17592;SDS011;8915;51.760;14.300;2022-09-23T05:52:42;10.07;;;6.43;;
17592;SDS011;8915;51.760;14.300;2022-09-23T05:55:08;10.03;;;6.00;;
17592;SDS011;8915;51.760;14.300;2022-09-23T05:57:35;8.80;;;6.30;;
17592;SDS011;8915;51.760;14.300;2022-09-23T06:00:02;9.57;;;6.30;;
17592;SDS011;8915;51.760;14.300;2022-09-23T06:02:37;12.23;;;5.43;;
17592;SDS011;8915;51.760;14.300;2022-09-23T06:05:03;6.73;;;5.17;;
17592;SDS011;8915;51.760;14.300;2022-09-23T06:07:31;9.10;;;5.47;;
17592;SDS011;8915;51.760;14.300;2022-09-23T06:09:58;7.33;;;5.03;;
17592;SDS011;8915;51.760;14.300;2022-09-23T06:12:24;6.57;;;4.93;;
17592;SDS011;8915;51.760;14.300;2022-09-23T06:14:51;6.73;;;5.27;;
17592;SDS011;8915;51.760;14.300;2022-09-23T06:17:17;14.53;;;6.00;;
17592;SDS011;8915;51.760;14.300;2022-09-23T06:19:43;7.53;;;6.17;;
17592;SDS011;8915;51.760;14.300;2022-09-23T06:22:10;8.10;;;5.70;;
17592;SDS011;8915;51.760;14.300;2022-09-23T06:24:42;7.97;;;5.27;;
17592;SDS011;8915;51.760;14.300;2022-09-23T06:27:08;7.87;;;5.60;;
17592;SDS011;8915;51.760;14.300;2022-09-23T06:29:35;7.03;;;5.20;;
17592;SDS011;8915;51.760;14.300;2022-09-23T06:32:01;9.50;;;5.23;;
17592;SDS011;8915;51.760;14.300;2022-09-23T06:34:28;5.63;;;4.93;;
17592;SDS011;8915;51.760;14.300;2022-09-23T06:36:54;7.00;;;5.60;;
17592;SDS011;8915;51.760;14.300;2022-09-23T06:39:21;6.77;;;5.27;;
17592;SDS011;8915;51.760;14.300;2022-09-23T06:41:49;7.67;;;5.27;;
17592;SDS011;8915;51.760;14.300;2022-09-23T06:44:15;7.47;;;5.90;;
17592;SDS011;8915;51.760;14.300;2022-09-23T06:46:42;8.13;;;6.53;;
17592;SDS011;8915;51.760;14.300;2022-09-23T06:49:08;8.20;;;5.97;;
17592;SDS011;8915;51.760;14.300;2022-09-23T06:51:37;7.73;;;6.40;;
17592;SDS011;8915;51.760;14.300;2022-09-23T06:54:04;9.83;;;6.80;;
17592;SDS011;8915;51.760;14.300;2022-09-23T06:56:30;7.13;;;5.77;;
17592;SDS011;8915;51.760;14.300;2022-09-23T06:58:58;9.03;;;6.07;;
17592;SDS011;8915;51.760;14.300;2022-09-23T07:01:24;9.73;;;7.10;;
17592;SDS011;8915;51.760;14.300;2022-09-23T07:03:51;8.27;;;6.40;;
17592;SDS011;8915;51.760;14.300;2022-09-23T07:06:18;8.33;;;6.47;;
17592;SDS011;8915;51.760;14.300;2022-09-23T07:08:44;10.23;;;6.57;;
17592;SDS011;8915;51.760;14.300;2022-09-23T07:11:12;10.37;;;7.83;;
17592;SDS011;8915;51.760;14.300;2022-09-23T07:13:39;13.70;;;10.77;;
17592;SDS011;8915;51.760;14.300;2022-09-23T07:16:08;9.37;;;7.30;;
17592;SDS011;8915;51.760;14.300;2022-09-23T07:18:36;10.87;;;7.70;;
17592;SDS011;8915;51.760;14.300;2022-09-23T07:21:04;9.57;;;7.23;;
17592;SDS011;8915;51.760;14.300;2022-09-23T07:23:31;17.50;;;12.50;;
17592;SDS011;8915;51.760;14.300;2022-09-23T07:25:58;16.60;;;10.97;;
17592;SDS011;8915;51.760;14.300;2022-09-23T07:28:25;27.13;;;18.10;;
17592;SDS011;8915;51.760;14.300;2022-09-23T07:30:53;10.73;;;7.50;;
17592;SDS011;8915;51.760;14.300;2022-09-23T07:33:21;11.80;;;9.60;;
17592;SDS011;8915;51.760;14.300;2022-09-23T07:35:47;11.43;;;8.53;;
17592;SDS011;8915;51.760;14.300;2022-09-23T07:38:13;12.17;;;7.73;;
17592;SDS011;8915;51.760;14.300;2022-09-23T07:40:40;11.17;;;8.00;;
17592;SDS011;8915;51.760;14.300;2022-09-23T07:43:06;10.63;;;7.53;;
17592;SDS011;8915;51.760;14.300;2022-09-23T07:45:33;9.50;;;7.13;;
17592;SDS011;8915;51.760;14.300;2022-09-23T07:48:02;11.37;;;8.07;;
17592;SDS011;8915;51.760;14.300;2022-09-23T07:50:30;10.00;;;7.73;;
17592;SDS011;8915;51.760;14.300;2022-09-23T07:52:57;9.97;;;6.77;;
17592;SDS011;8915;51.760;14.300;2022-09-23T07:55:26;9.90;;;7.07;;
17592;SDS011;8915;51.760;14.300;2022-09-23T07:57:53;9.87;;;7.30;;
17592;SDS011;8915;51.760;14.300;2022-09-23T08:00:19;9.13;;;7.43;;
17592;SDS011;8915;51.760;14.300;2022-09-23T08:02:46;14.40;;;8.13;;
17592;SDS011;8915;51.760;14.300;2022-09-23T08:05:12;11.17;;;7.03;;
17592;SDS011;8915;51.760;14.300;2022-09-23T08:07:40;10.43;;;8.07;;
17592;SDS011;8915;51.760;14.300;2022-09-23T08:10:06;10.53;;;7.33;;
17592;SDS011;8915;51.760;14.300;2022-09-23T08:12:33;10.70;;;8.00;;
17592;SDS011;8915;51.760;14.300;2022-09-23T08:15:00;13.37;;;8.90;;
17592;SDS011;8915;51.760;14.300;2022-09-23T08:17:27;15.00;;;10.43;;
17592;SDS011;8915;51.760;14.300;2022-09-23T08:19:53;14.17;;;8.53;;
17592;SDS011;8915;51.760;14.300;2022-09-23T08:22:19;10.50;;;7.90;;
17592;SDS011;8915;51.760;14.300;2022-09-23T08:24:47;13.50;;;8.97;;
17592;SDS011;8915;51.760;14.300;2022-09-23T08:27:13;12.37;;;8.10;;
17592;SDS011;8915;51.760;14.300;2022-09-23T08:29:40;15.30;;;9.10;;
17592;SDS011;8915;51.760;14.300;2022-09-23T08:32:06;17.87;;;9.37;;
17592;SDS011;8915;51.760;14.300;2022-09-23T08:34:33;13.50;;;9.00;;
17592;SDS011;8915;51.760;14.300;2022-09-23T08:36:59;17.43;;;9.60;;
17592;SDS011;8915;51.760;14.300;2022-09-23T08:39:26;17.30;;;10.20;;
17592;SDS011;8915;51.760;14.300;2022-09-23T08:42:00;17.00;;;10.43;;
17592;SDS011;8915;51.760;14.300;2022-09-23T08:44:36;14.27;;;9.00;;
17592;SDS011;8915;51.760;14.300;2022-09-23T08:47:12;14.30;;;9.27;;
17592;SDS011;8915;51.760;14.300;2022-09-23T08:49:45;14.30;;;9.43;;
17592;SDS011;8915;51.760;14.300;2022-09-23T08:52:19;14.80;;;10.23;;
17592;SDS011;8915;51.760;14.300;2022-09-23T08:54:52;19.93;;;11.03;;
17592;SDS011;8915;51.760;14.300;2022-09-23T08:57:23;21.93;;;11.23;;
17592;SDS011;8915;51.760;14.300;2022-09-23T08:59:59;26.87;;;12.57;;
17592;SDS011;8915;51.760;14.300;2022-09-23T09:02:27;17.57;;;10.77;;
17592;SDS011;8915;51.760;14.300;2022-09-23T09:04:55;17.77;;;10.63;;
17592;SDS011;8915;51.760;14.300;2022-09-23T09:07:28;22.23;;;11.70;;
17592;SDS011;8915;51.760;14.300;2022-09-23T09:10:01;17.33;;;11.37;;
17592;SDS011;8915;51.760;14.300;2022-09-23T09:12:32;16.07;;;10.37;;
17592;SDS011;8915;51.760;14.300;2022-09-23T09:15:09;14.23;;;8.90;;
17592;SDS011;8915;51.760;14.300;2022-09-23T09:17:38;12.77;;;8.60;;
17592;SDS011;8915;51.760;14.300;2022-09-23T09:20:17;12.00;;;8.53;;
17592;SDS011;8915;51.760;14.300;2022-09-23T09:22:49;8.20;;;7.10;;
17592;SDS011;8915;51.760;14.300;2022-09-23T09:25:24;7.33;;;6.17;;
17592;SDS011;8915;51.760;14.300;2022-09-23T09:28:07;9.33;;;5.60;;
17592;SDS011;8915;51.760;14.300;2022-09-23T09:30:39;7.10;;;5.27;;
17592;SDS011;8915;51.760;14.300;2022-09-23T09:33:09;7.90;;;5.07;;
17592;SDS011;8915;51.760;14.300;2022-09-23T09:35:40;7.43;;;4.30;;
17592;SDS011;8915;51.760;14.300;2022-09-23T09:38:17;7.07;;;4.43;;
17592;SDS011;8915;51.760;14.300;2022-09-23T09:40:46;8.17;;;4.00;;
17592;SDS011;8915;51.760;14.300;2022-09-23T09:43:17;5.47;;;3.00;;
17592;SDS011;8915;51.760;14.300;2022-09-23T09:45:49;3.63;;;2.53;;
17592;SDS011;8915;51.760;14.300;2022-09-23T09:48:27;5.73;;;3.13;;
17592;SDS011;8915;51.760;14.300;2022-09-23T09:51:14;2.80;;;2.40;;
17592;SDS011;8915;51.760;14.300;2022-09-23T09:53:43;3.90;;;2.90;;
17592;SDS011;8915;51.760;14.300;2022-09-23T09:56:11;3.87;;;2.60;;
17592;SDS011;8915;51.760;14.300;2022-09-23T09:58:42;3.57;;;3.00;;
17592;SDS011;8915;51.760;14.300;2022-09-23T10:01:21;3.43;;;2.33;;
17592;SDS011;8915;51.760;14.300;2022-09-23T10:03:49;3.30;;;2.67;;
17592;SDS011;8915;51.760;14.300;2022-09-23T10:06:18;2.93;;;2.63;;
17592;SDS011;8915;51.760;14.300;2022-09-23T10:08:48;3.90;;;2.23;;
17592;SDS011;8915;51.760;14.300;2022-09-23T10:11:32;2.33;;;1.97;;
17592;SDS011;8915;51.760;14.300;2022-09-23T10:14:02;1.93;;;1.73;;
17592;SDS011;8915;51.760;14.300;2022-09-23T10:16:31;2.20;;;2.00;;
17592;SDS011;8915;51.760;14.300;2022-09-23T10:18:59;4.17;;;2.00;;
17592;SDS011;8915;51.760;14.300;2022-09-23T10:21:31;2.57;;;1.70;;
17592;SDS011;8915;51.760;14.300;2022-09-23T10:23:59;2.73;;;1.70;;
17592;SDS011;8915;51.760;14.300;2022-09-23T10:26:29;2.10;;;1.40;;
17592;SDS011;8915;51.760;14.300;2022-09-23T10:28:57;2.47;;;1.80;;
17592;SDS011;8915;51.760;14.300;2022-09-23T10:31:28;1.67;;;1.57;;
17592;SDS011;8915;51.760;14.300;2022-09-23T10:33:56;1.60;;;1.30;;
17592;SDS011;8915;51.760;14.300;2022-09-23T10:36:24;4.13;;;3.20;;
17592;SDS011;8915;51.760;14.300;2022-09-23T10:38:53;2.40;;;1.63;;
17592;SDS011;8915;51.760;14.300;2022-09-23T10:41:44;2.30;;;1.27;;
17592;SDS011;8915;51.760;14.300;2022-09-23T10:44:40;1.77;;;1.00;;
17592;SDS011;8915;51.760;14.300;2022-09-23T10:47:39;1.57;;;1.10;;
17592;SDS011;8915;51.760;14.300;2022-09-23T10:50:13;1.70;;;1.30;;
17592;SDS011;8915;51.760;14.300;2022-09-23T10:52:53;1.13;;;1.00;;
17592;SDS011;8915;51.760;14.300;2022-09-23T10:55:38;1.93;;;1.10;;
17592;SDS011;8915;51.760;14.300;2022-09-23T11:01:23;2.90;;;1.30;;
17592;SDS011;8915;51.760;14.300;2022-09-23T11:04:05;1.90;;;1.30;;
17592;SDS011;8915;51.760;14.300;2022-09-23T11:06:46;1.73;;;1.47;;
17592;SDS011;8915;51.760;14.300;2022-09-23T11:09:32;1.10;;;1.00;;
17592;SDS011;8915;51.760;14.300;2022-09-23T11:12:08;1.20;;;1.10;;
17592;SDS011;8915;51.760;14.300;2022-09-23T11:14:49;1.23;;;1.03;;
17592;SDS011;8915;51.760;14.300;2022-09-23T11:17:29;1.20;;;1.10;;
17592;SDS011;8915;51.760;14.300;2022-09-23T11:20:15;1.30;;;1.20;;
17592;SDS011;8915;51.760;14.300;2022-09-23T11:23:17;1.27;;;1.13;;
17592;SDS011;8915;51.760;14.300;2022-09-23T11:25:55;1.67;;;1.23;;
17592;SDS011;8915;51.760;14.300;2022-09-23T11:28:34;1.23;;;1.00;;
17592;SDS011;8915;51.760;14.300;2022-09-23T11:31:36;2.03;;;1.50;;
17592;SDS011;8915;51.760;14.300;2022-09-23T11:34:18;1.03;;;0.93;;
17592;SDS011;8915;51.760;14.300;2022-09-23T11:37:10;0.90;;;0.90;;
17592;SDS011;8915;51.760;14.300;2022-09-23T11:39:41;0.93;;;0.90;;
17592;SDS011;8915;51.760;14.300;2022-09-23T11:42:13;1.20;;;1.10;;
17592;SDS011;8915;51.760;14.300;2022-09-23T11:44:45;1.63;;;0.70;;
17592;SDS011;8915;51.760;14.300;2022-09-23T11:47:15;0.83;;;0.80;;
17592;SDS011;8915;51.760;14.300;2022-09-23T11:49:48;1.07;;;0.90;;
17592;SDS011;8915;51.760;14.300;2022-09-23T11:52:21;1.27;;;1.00;;
17592;SDS011;8915;51.760;14.300;2022-09-23T11:54:53;0.83;;;0.70;;
17592;SDS011;8915;51.760;14.300;2022-09-23T11:57:23;1.23;;;1.00;;
17592;SDS011;8915;51.760;14.300;2022-09-23T11:59:55;0.80;;;0.80;;
17592;SDS011;8915;51.760;14.300;2022-09-23T12:02:26;3.07;;;0.90;;
17592;SDS011;8915;51.760;14.300;2022-09-23T12:04:57;1.20;;;0.80;;
17592;SDS011;8915;51.760;14.300;2022-09-23T12:07:30;0.80;;;0.80;;
17592;SDS011;8915;51.760;14.300;2022-09-23T12:10:07;1.00;;;0.90;;
17592;SDS011;8915;51.760;14.300;2022-09-23T12:12:37;0.80;;;0.80;;
17592;SDS011;8915;51.760;14.300;2022-09-23T12:15:23;1.80;;;1.20;;
17592;SDS011;8915;51.760;14.300;2022-09-23T12:18:01;2.20;;;1.90;;
17592;SDS011;8915;51.760;14.300;2022-09-23T12:20:43;0.80;;;0.80;;
17592;SDS011;8915;51.760;14.300;2022-09-23T12:23:24;2.20;;;1.47;;
17592;SDS011;8915;51.760;14.300;2022-09-23T12:26:03;2.20;;;1.40;;
17592;SDS011;8915;51.760;14.300;2022-09-23T12:28:33;0.87;;;0.87;;
17592;SDS011;8915;51.760;14.300;2022-09-23T12:31:04;1.00;;;0.90;;
17592;SDS011;8915;51.760;14.300;2022-09-23T12:33:37;0.73;;;0.73;;
17592;SDS011;8915;51.760;14.300;2022-09-23T12:36:04;0.90;;;0.73;;
17592;SDS011;8915;51.760;14.300;2022-09-23T12:38:33;0.97;;;0.87;;
17592;SDS011;8915;51.760;14.300;2022-09-23T12:41:01;1.43;;;0.90;;
17592;SDS011;8915;51.760;14.300;2022-09-23T12:43:48;1.10;;;0.83;;
17592;SDS011;8915;51.760;14.300;2022-09-23T12:46:20;1.10;;;0.97;;
17592;SDS011;8915;51.760;14.300;2022-09-23T12:49:03;0.80;;;0.80;;
17592;SDS011;8915;51.760;14.300;2022-09-23T12:51:31;1.00;;;0.70;;
17592;SDS011;8915;51.760;14.300;2022-09-23T12:54:19;0.80;;;0.80;;
17592;SDS011;8915;51.760;14.300;2022-09-23T12:56:56;0.80;;;0.80;;
17592;SDS011;8915;51.760;14.300;2022-09-23T12:59:27;1.40;;;0.90;;
17592;SDS011;8915;51.760;14.300;2022-09-23T13:01:56;13.90;;;8.30;;
17592;SDS011;8915;51.760;14.300;2022-09-23T13:04:42;3.67;;;2.47;;
17592;SDS011;8915;51.760;14.300;2022-09-23T13:07:27;1.60;;;1.30;;
17592;SDS011;8915;51.760;14.300;2022-09-23T13:10:02;0.70;;;0.70;;
17592;SDS011;8915;51.760;14.300;2022-09-23T13:12:34;1.13;;;0.60;;
17592;SDS011;8915;51.760;14.300;2022-09-23T13:15:04;0.77;;;0.77;;
17592;SDS011;8915;51.760;14.300;2022-09-23T13:17:42;2.93;;;0.90;;
17592;SDS011;8915;51.760;14.300;2022-09-23T13:23:15;1.67;;;0.60;;
17592;SDS011;8915;51.760;14.300;2022-09-23T13:25:47;2.20;;;0.60;;
17592;SDS011;8915;51.760;14.300;2022-09-23T13:28:31;0.70;;;0.70;;
17592;SDS011;8915;51.760;14.300;2022-09-23T13:31:02;1.00;;;0.90;;
17592;SDS011;8915;51.760;14.300;2022-09-23T13:33:32;2.07;;;0.93;;
17592;SDS011;8915;51.760;14.300;2022-09-23T13:36:07;0.80;;;0.80;;
17592;SDS011;8915;51.760;14.300;2022-09-23T13:38:36;0.83;;;0.70;;
17592;SDS011;8915;51.760;14.300;2022-09-23T13:41:06;0.93;;;0.80;;
17592;SDS011;8915;51.760;14.300;2022-09-23T13:43:39;0.80;;;0.77;;
17592;SDS011;8915;51.760;14.300;2022-09-23T13:46:08;0.83;;;0.83;;
17592;SDS011;8915;51.760;14.300;2022-09-23T13:48:38;1.37;;;0.87;;
17592;SDS011;8915;51.760;14.300;2022-09-23T13:51:07;0.77;;;0.77;;
17592;SDS011;8915;51.760;14.300;2022-09-23T13:53:35;0.90;;;0.70;;
17592;SDS011;8915;51.760;14.300;2022-09-23T13:56:04;0.70;;;0.70;;
17592;SDS011;8915;51.760;14.300;2022-09-23T13:58:33;1.17;;;0.87;;
17592;SDS011;8915;51.760;14.300;2022-09-23T14:01:01;0.60;;;0.60;;
17592;SDS011;8915;51.760;14.300;2022-09-23T14:03:28;2.67;;;0.93;;
17592;SDS011;8915;51.760;14.300;2022-09-23T14:05:57;1.20;;;0.67;;
17592;SDS011;8915;51.760;14.300;2022-09-23T14:08:25;0.70;;;0.70;;
17592;SDS011;8915;51.760;14.300;2022-09-23T14:10:52;1.43;;;0.70;;
17592;SDS011;8915;51.760;14.300;2022-09-23T14:13:22;0.60;;;0.60;;
17592;SDS011;8915;51.760;14.300;2022-09-23T14:15:51;1.27;;;0.70;;
17592;SDS011;8915;51.760;14.300;2022-09-23T14:18:25;1.77;;;0.80;;
17592;SDS011;8915;51.760;14.300;2022-09-23T14:20:55;1.37;;;0.90;;
17592;SDS011;8915;51.760;14.300;2022-09-23T14:23:21;0.80;;;0.80;;
17592;SDS011;8915;51.760;14.300;2022-09-23T14:25:47;2.30;;;0.73;;
17592;SDS011;8915;51.760;14.300;2022-09-23T14:28:16;0.67;;;0.67;;
17592;SDS011;8915;51.760;14.300;2022-09-23T14:30:46;1.33;;;0.80;;
17592;SDS011;8915;51.760;14.300;2022-09-23T14:33:17;1.70;;;1.00;;
17592;SDS011;8915;51.760;14.300;2022-09-23T14:35:47;1.87;;;0.97;;
17592;SDS011;8915;51.760;14.300;2022-09-23T14:38:23;0.80;;;0.80;;
17592;SDS011;8915;51.760;14.300;2022-09-23T14:43:59;0.97;;;0.87;;
17592;SDS011;8915;51.760;14.300;2022-09-23T14:46:29;1.00;;;0.90;;
17592;SDS011;8915;51.760;14.300;2022-09-23T14:48:58;1.30;;;1.20;;
17592;SDS011;8915;51.760;14.300;2022-09-23T14:51:29;0.73;;;0.73;;
17592;SDS011;8915;51.760;14.300;2022-09-23T14:57:16;2.27;;;0.90;;
17592;SDS011;8915;51.760;14.300;2022-09-23T14:59:50;0.80;;;0.80;;
17592;SDS011;8915;51.760;14.300;2022-09-23T15:02:29;0.80;;;0.80;;
17592;SDS011;8915;51.760;14.300;2022-09-23T15:05:07;0.80;;;0.80;;
17592;SDS011;8915;51.760;14.300;2022-09-23T15:07:39;1.10;;;0.77;;
17592;SDS011;8915;51.760;14.300;2022-09-23T15:10:07;2.90;;;1.10;;
17592;SDS011;8915;51.760;14.300;2022-09-23T15:12:41;1.07;;;0.80;;
17592;SDS011;8915;51.760;14.300;2022-09-23T15:15:09;0.60;;;0.60;;
17592;SDS011;8915;51.760;14.300;2022-09-23T15:17:39;0.73;;;0.73;;
17592;SDS011;8915;51.760;14.300;2022-09-23T15:20:07;0.90;;;0.70;;
17592;SDS011;8915;51.760;14.300;2022-09-23T15:22:43;1.50;;;1.10;;